CDT,Max TemperatureF,Mean TemperatureF,Min TemperatureF,Max Dew PointF,MeanDew PointF,Min DewpointF,Max Humidity, Mean Humidity, Min Humidity, Max Sea Level PressureIn, Mean Sea Level PressureIn, Min Sea Level PressureIn, Max VisibilityMiles, Mean VisibilityMiles, Min VisibilityMiles, Max Wind SpeedMPH, Mean Wind SpeedMPH, Max Gust SpeedMPH,PrecipitationIn, CloudCover, Events, WindDirDegrees
2014-7-1,81,74,66,69,66,63,100,78,54,29.82,29.75,29.67,10,10,7,18,10,24,0.00,3,Rain-Thunderstorm,240
2014-7-2,70,64,59,65,59,56,100,83,61,30.03,29.93,29.82,10,9,3,14,8,20,0.00,6,Rain,284
2014-7-3,75,66,58,59,55,47,100,73,38,30.21,30.13,30.03,10,9,4,13,2,17,0.00,3,Rain,320
2014-7-4,78,65,52,61,55,51,94,67,43,30.31,30.28,30.22,10,10,10,7,2,,0.00,1,,275
2014-7-5,78,68,60,64,59,54,91,70,48,30.27,30.19,30.08,10,10,10,14,5,20,0.00,4,Rain,185
2014-7-6,86,74,61,73,67,60,95,77,64,30.07,29.89,29.76,10,10,10,21,9,28,0.00,4,Thunderstorm,209
2014-7-7,86,78,71,74,71,64,100,78,50,29.78,29.75,29.68,10,10,5,14,8,21,0.00,2,Rain-Thunderstorm,267
2014-7-8,80,72,64,71,65,61,99,74,52,29.85,29.74,29.63,10,10,1,23,10,32,0.00,3,Rain-Thunderstorm,266
2014-7-9,78,69,60,62,59,56,100,74,49,30.07,29.95,29.85,10,10,10,10,5,16,0.00,1,,300
2014-7-10,79,68,57,62,57,52,99,70,42,30.20,30.14,30.07,10,10,10,6,1,,0.00,1,,104
2014-7-11,80,68,57,65,60,56,99,70,46,30.22,30.16,30.08,10,10,10,9,3,,0.00,1,Rain,152
2014-7-12,81,75,69,79,71,63,100,89,72,30.11,30.00,29.87,10,8,1,29,6,41,0.00,4,Rain-Thunderstorm,185
2014-7-13,83,76,68,74,69,66,100,84,55,29.97,29.92,29.86,10,10,1,9,6,,0.00,4,Rain-Thunderstorm,281
2014-7-14,79,69,59,70,62,54,100,79,43,29.92,29.86,29.81,10,9,4,17,4,20,0.00,2,Rain,290
2014-7-15,70,60,52,57,54,51,98,78,57,29.99,29.94,29.88,10,10,10,17,9,24,0.00,4,,300
2014-7-16,73,62,51,58,54,51,100,76,49,30.06,30.02,29.98,10,10,10,8,3,,0.00,3,,322
2014-7-17,77,66,54,63,58,53,100,77,49,30.12,30.09,30.05,10,10,10,6,1,,0.00,2,,231
2014-7-18,78,67,57,63,60,57,100,79,55,30.18,30.13,30.09,10,10,4,8,2,,0.00,1,,148
2014-7-19,78,66,55,65,60,55,100,77,49,30.10,30.07,30.02,10,9,3,6,1,,0.00,0,,228
2014-7-20,80,68,57,66,62,57,100,80,54,30.08,30.05,30.02,10,8,1,6,1,,0.00,1,,191
2014-7-21,84,72,60,69,66,61,100,80,58,30.12,30.07,30.04,10,8,1,9,3,,0.00,0,,168
2014-7-22,88,76,64,76,71,64,100,81,64,30.07,30.01,29.95,10,8,4,16,6,21,0.00,1,Thunderstorm,206
2014-7-23,78,66,55,77,58,52,94,68,43,30.16,30.10,29.98,10,10,7,9,5,18,0.00,1,Rain-Thunderstorm,41
2014-7-24,77,64,53,58,53,49,97,68,39,30.18,30.12,30.05,10,10,10,9,2,,0.00,0,,66
2014-7-25,74,63,53,62,58,52,96,78,62,30.10,30.00,29.91,10,10,10,15,5,22,0.00,3,Rain,186
2014-7-26,80,74,68,73,67,60,100,82,73,29.92,29.85,29.79,10,9,2,10,5,17,0.00,6,Rain,197
2014-7-27,85,74,65,76,64,57,100,75,43,29.91,29.80,29.76,10,7,0,26,6,36,0.00,3,Fog,297
2014-7-28,72,64,57,61,54,48,92,70,44,30.10,30.05,29.92,10,10,10,7,3,,0.00,2,,331
2014-7-29,80,66,53,64,58,53,96,77,46,30.08,30.05,30.01,10,10,5,16,7,32,0.00,2,Rain-Thunderstorm,286
2014-7-30,78,68,58,63,61,59,100,78,51,30.06,30.03,30.00,10,10,7,10,4,16,0.12,2,,290
2014-7-31,82,68,55,66,61,55,100,78,52,30.07,30.05,30.03,10,9,5,13,3,18,0.00,1,,254